createdAt,value
2023-05-09T00:02:09.998Z,98534.34
2023-05-09T00:04:41.830Z,98535.31
2023-05-09T00:07:10.604Z,98533.00
2023-05-09T00:09:38.949Z,98529.09
2023-05-09T00:12:09.407Z,98536.13
2023-05-09T00:14:39.561Z,98542.06
2023-05-09T00:17:09.655Z,98535.31
2023-05-09T00:19:39.142Z,98541.78
2023-05-09T00:22:11.430Z,98535.88
2023-05-09T00:24:48.204Z,98534.34
2023-05-09T00:27:25.069Z,98537.31
2023-05-09T00:29:52.824Z,98529.94
2023-05-09T00:32:24.217Z,98533.00
2023-05-09T00:34:55.708Z,98532.41
2023-05-09T00:37:26.817Z,98523.00
2023-05-09T00:39:54.764Z,98524.88
2023-05-09T00:42:25.257Z,98516.94
2023-05-09T00:44:57.122Z,98515.91
2023-05-09T00:47:25.056Z,98507.69
2023-05-09T00:49:55.037Z,98506.00
2023-05-09T00:52:26.912Z,98510.16
2023-05-09T00:54:58.983Z,98502.13
2023-05-09T00:57:26.712Z,98496.56
2023-05-09T01:00:04.397Z,98499.59
2023-05-09T01:02:36.315Z,98500.13
2023-05-09T01:05:08.312Z,98491.38
2023-05-09T01:07:45.316Z,98497.56
2023-05-09T01:10:24.190Z,98485.59
2023-05-09T01:13:02.000Z,98480.38
2023-05-09T01:15:40.678Z,98487.59
2023-05-09T01:18:15.257Z,98472.75
2023-05-09T01:20:53.101Z,98477.94
2023-05-09T01:23:46.084Z,98485.72
2023-05-09T01:26:24.014Z,98477.22
2023-05-09T01:29:12.000Z,98481.19
2023-05-09T01:31:45.434Z,98489.75
2023-05-09T01:34:17.116Z,98480.53
2023-05-09T01:36:49.065Z,98472.72
2023-05-09T01:39:19.872Z,98472.44
2023-05-09T01:41:51.950Z,98479.06
2023-05-09T01:44:26.477Z,98476.63
2023-05-09T01:46:58.874Z,98477.47
2023-05-09T01:49:30.116Z,98467.25
2023-05-09T01:52:02.006Z,98463.34
2023-05-09T01:54:31.792Z,98468.09
2023-05-09T01:57:03.054Z,98470.53
2023-05-09T01:59:36.209Z,98463.75
2023-05-09T02:02:05.293Z,98463.84
2023-05-09T02:04:36.451Z,98466.84
2023-05-09T02:07:07.239Z,98456.69
2023-05-09T02:09:35.037Z,98455.94
2023-05-09T02:12:05.508Z,98458.84
2023-05-09T02:14:34.569Z,98457.47
2023-05-09T02:17:06.849Z,98458.97
2023-05-09T02:19:35.545Z,98461.06
2023-05-09T02:22:05.148Z,98468.50
2023-05-09T02:24:34.355Z,98467.13
2023-05-09T02:27:03.902Z,98464.41
2023-05-09T02:29:40.698Z,98459.63
2023-05-09T02:32:12.224Z,98463.69
2023-05-09T02:34:41.978Z,98467.84
2023-05-09T02:37:12.204Z,98468.19
2023-05-09T02:39:40.081Z,98462.34
2023-05-09T02:42:14.445Z,98458.91
2023-05-09T02:44:47.947Z,98457.94
2023-05-09T02:47:17.771Z,98457.22
2023-05-09T02:49:46.151Z,98458.97
2023-05-09T02:52:14.244Z,98450.31
2023-05-09T02:54:45.652Z,98455.94
2023-05-09T02:57:17.898Z,98454.91
2023-05-09T02:59:49.987Z,98449.34
2023-05-09T03:02:21.468Z,98448.72
2023-05-09T03:04:51.982Z,98451.75
2023-05-09T03:07:24.405Z,98455.19
2023-05-09T03:09:52.434Z,98452.88
2023-05-09T03:12:20.555Z,98462.63
2023-05-09T03:14:49.992Z,98460.25
2023-05-09T03:17:25.527Z,98449.78
2023-05-09T03:19:54.920Z,98452.78
2023-05-09T03:22:23.378Z,98447.84
2023-05-09T03:24:52.528Z,98439.25
2023-05-09T03:27:23.504Z,98441.47
2023-05-09T03:29:59.720Z,98443.06
2023-05-09T03:32:28.030Z,98443.25
2023-05-09T03:34:55.934Z,98445.53
2023-05-09T03:37:26.224Z,98442.38
2023-05-09T03:39:54.730Z,98444.66
2023-05-09T03:42:25.313Z,98442.28
2023-05-09T03:44:55.091Z,98436.53
2023-05-09T03:47:23.404Z,98436.97
2023-05-09T03:49:53.579Z,98432.63
2023-05-09T03:52:23.714Z,98434.22
2023-05-09T03:54:56.490Z,98437.41
2023-05-09T03:57:24.663Z,98433.53
2023-05-09T03:59:52.990Z,98444.94
2023-05-09T04:02:22.643Z,98447.59
2023-05-09T04:04:55.189Z,98445.91
2023-05-09T04:07:23.614Z,98445.03
2023-05-09T04:09:51.887Z,98455.28
2023-05-09T04:12:21.866Z,98457.84
2023-05-09T04:14:52.439Z,98449.19
2023-05-09T04:17:22.839Z,98457.75
2023-05-09T04:19:55.565Z,98461.06
2023-05-09T04:22:23.543Z,98444.66
2023-05-09T04:24:51.276Z,98452.38
2023-05-09T04:27:21.810Z,98447.84
2023-05-09T04:29:53.797Z,98449.97
2023-05-09T04:32:23.367Z,98451.56
2023-05-09T04:34:53.379Z,98438.47
2023-05-09T04:37:24.874Z,98442.53
2023-05-09T04:39:52.862Z,98438.31
2023-05-09T04:42:24.457Z,98435.28
2023-05-09T04:44:52.478Z,98441.47
2023-05-09T04:47:22.735Z,98441.81
2023-05-09T04:49:52.807Z,98450.53
2023-05-09T04:52:25.030Z,98441.41
2023-05-09T04:54:53.299Z,98445.06
2023-05-09T04:57:28.640Z,98448.56
2023-05-09T04:59:59.477Z,98451.47
2023-05-09T05:02:27.997Z,98444.25
2023-05-09T05:05:10.715Z,98443.25
2023-05-09T05:07:42.068Z,98449.75
2023-05-09T05:10:13.345Z,98451.06
2023-05-09T05:12:43.924Z,98453.53
2023-05-09T05:15:14.101Z,98443.34
2023-05-09T05:17:44.212Z,98445.88
2023-05-09T05:20:15.004Z,98444.28
2023-05-09T05:22:43.902Z,98454.81
2023-05-09T05:25:13.508Z,98450.16
2023-05-09T05:27:43.649Z,98456.09
2023-05-09T05:30:13.944Z,98452.53
2023-05-09T05:32:45.619Z,98450.19
2023-05-09T05:35:17.856Z,98448.66
2023-05-09T05:37:55.830Z,98439.63
2023-05-09T05:40:31.720Z,98440.28
2023-05-09T05:43:03.956Z,98440.44
2023-05-09T05:45:33.663Z,98435.38
2023-05-09T05:48:03.374Z,98432.13
2023-05-09T05:50:40.141Z,98429.94
2023-05-09T05:53:09.314Z,98425.22
2023-05-09T05:55:38.334Z,98423.25
2023-05-09T05:58:07.173Z,98425.69
2023-05-09T06:00:36.322Z,98415.75
2023-05-09T06:03:05.585Z,98424.88
2023-05-09T06:05:41.635Z,98427.53
2023-05-09T06:08:11.614Z,98418.94
2023-05-09T06:10:39.631Z,98420.38
2023-05-09T06:13:11.317Z,98415.03
2023-05-09T06:15:39.174Z,98415.72
2023-05-09T06:18:21.093Z,98413.25
2023-05-09T06:20:55.777Z,98414.97
2023-05-09T06:23:26.322Z,98421.50
2023-05-09T06:25:56.322Z,98409.69
2023-05-09T06:28:24.835Z,98409.81
2023-05-09T06:30:53.969Z,98405.69
2023-05-09T06:33:21.895Z,98404.69
2023-05-09T06:35:52.377Z,98409.09
2023-05-09T06:38:20.573Z,98412.13
2023-05-09T06:40:53.348Z,98397.88
2023-05-09T06:43:21.115Z,98399.78
2023-05-09T06:45:49.376Z,98397.59
2023-05-09T06:48:22.124Z,98384.59
2023-05-09T06:50:56.564Z,98390.63
2023-05-09T06:53:27.064Z,98372.78
2023-05-09T06:55:57.608Z,98370.50
2023-05-09T06:58:26.158Z,98369.84
2023-05-09T07:00:55.305Z,98358.53
2023-05-09T07:03:26.112Z,98358.28
2023-05-09T07:05:59.126Z,98351.41
2023-05-09T07:08:36.528Z,98345.88
2023-05-09T07:11:04.851Z,98346.69
2023-05-09T07:13:35.854Z,98351.53
2023-05-09T07:16:18.164Z,98346.19
2023-05-09T07:18:46.991Z,98343.66
2023-05-09T07:21:18.165Z,98341.75
2023-05-09T07:23:48.429Z,98334.75
2023-05-09T07:26:18.909Z,98333.81
2023-05-09T07:28:52.279Z,98330.53
2023-05-09T07:31:20.225Z,98332.78
2023-05-09T07:33:48.901Z,98333.41
2023-05-09T07:36:18.155Z,98337.06
2023-05-09T07:38:47.857Z,98333.28
2023-05-09T07:41:17.451Z,98329.09
2023-05-09T07:43:45.735Z,98329.13
2023-05-09T07:46:14.122Z,98331.66
2023-05-09T07:48:41.953Z,98320.00
2023-05-09T07:51:09.639Z,98317.72
2023-05-09T07:53:38.750Z,98316.75
2023-05-09T07:56:07.855Z,98305.41
2023-05-09T07:58:35.579Z,98294.91
2023-05-09T08:01:03.619Z,98309.16
2023-05-09T08:03:32.044Z,98296.78
2023-05-09T08:06:00.172Z,98292.06
2023-05-09T08:08:28.416Z,98283.06
2023-05-09T08:10:58.583Z,98282.00
2023-05-09T08:13:26.693Z,98286.50
2023-05-09T08:15:54.515Z,98280.69
2023-05-09T08:18:22.273Z,98281.25
2023-05-09T08:20:51.075Z,98274.69
2023-05-09T08:23:18.836Z,98262.88
2023-05-09T08:25:46.527Z,98269.09
2023-05-09T08:28:15.920Z,98272.59
2023-05-09T08:30:43.632Z,98264.09
2023-05-09T08:33:12.442Z,98263.53
2023-05-09T08:35:40.560Z,98254.53
2023-05-09T08:38:08.518Z,98249.66
2023-05-09T08:40:37.664Z,98233.75
2023-05-09T08:43:08.866Z,98238.56
2023-05-09T08:45:43.754Z,98237.47
2023-05-09T08:48:11.959Z,98221.25
2023-05-09T08:50:40.326Z,98224.25
2023-05-09T08:53:08.438Z,98212.84
2023-05-09T08:55:36.373Z,98212.69
2023-05-09T08:58:07.194Z,98213.78
2023-05-09T09:00:35.766Z,98206.16
2023-05-09T09:03:09.113Z,98204.00
2023-05-09T09:05:44.595Z,98210.31
2023-05-09T09:08:12.923Z,98204.09
2023-05-09T09:10:43.642Z,98190.53
2023-05-09T09:13:13.709Z,98203.59
2023-05-09T09:15:42.880Z,98197.22
2023-05-09T09:18:13.753Z,98197.69
2023-05-09T09:20:46.076Z,98182.41
2023-05-09T09:23:18.996Z,98184.06
2023-05-09T09:25:47.049Z,98177.28
2023-05-09T09:28:14.862Z,98179.84
2023-05-09T09:30:45.162Z,98166.56
2023-05-09T09:33:20.188Z,98177.88
2023-05-09T09:35:50.492Z,98172.31
2023-05-09T09:38:19.333Z,98165.06
2023-05-09T09:40:56.476Z,98172.91
2023-05-09T09:43:33.389Z,98149.91
2023-05-09T09:46:03.140Z,98150.50
2023-05-09T09:48:34.880Z,98145.00
2023-05-09T09:51:11.396Z,98135.66
2023-05-09T09:53:43.068Z,98123.09
2023-05-09T09:56:11.737Z,98133.25
2023-05-09T09:58:39.705Z,98126.09
2023-05-09T10:01:08.531Z,98116.50
2023-05-09T10:03:39.084Z,98127.88
2023-05-09T10:06:10.238Z,98115.22
2023-05-09T10:08:37.999Z,98106.16
2023-05-09T10:11:06.210Z,98109.47
2023-05-09T10:13:37.351Z,98112.22
2023-05-09T10:16:06.663Z,98107.47
2023-05-09T10:18:35.661Z,98098.28
2023-05-09T10:21:06.771Z,98098.91
2023-05-09T10:23:39.261Z,98090.25
2023-05-09T10:26:17.613Z,98089.22
2023-05-09T10:28:48.041Z,98071.50
2023-05-09T10:31:21.706Z,98076.56
2023-05-09T10:33:51.160Z,98060.03
2023-05-09T10:36:22.570Z,98054.31
2023-05-09T10:38:52.552Z,98048.75
2023-05-09T10:41:22.100Z,98047.75
2023-05-09T10:43:50.119Z,98051.44
2023-05-09T10:46:18.654Z,98045.66
2023-05-09T10:48:46.694Z,98044.69
2023-05-09T10:51:14.946Z,98036.88
2023-05-09T10:53:46.194Z,98029.63
2023-05-09T10:56:27.979Z,98025.50
2023-05-09T10:58:55.856Z,98021.28
2023-05-09T11:01:32.808Z,98012.00
2023-05-09T11:04:01.240Z,98009.09
2023-05-09T11:06:49.076Z,98002.69
2023-05-09T11:09:37.854Z,97991.09
2023-05-09T11:12:10.708Z,97994.13
2023-05-09T11:14:44.430Z,97985.28
2023-05-09T11:17:13.833Z,97986.59
2023-05-09T11:20:00.687Z,97969.84
2023-05-09T11:22:30.886Z,97975.00
2023-05-09T11:25:05.623Z,97968.88
2023-05-09T11:27:44.381Z,97960.38
2023-05-09T11:30:14.745Z,97953.44
2023-05-09T11:32:48.047Z,97962.00
2023-05-09T11:35:18.025Z,97953.34
2023-05-09T11:37:48.517Z,97951.94
2023-05-09T11:40:19.694Z,97953.00
2023-05-09T11:42:49.843Z,97955.31
2023-05-09T11:45:18.697Z,97946.03
2023-05-09T11:47:47.540Z,97947.88
2023-05-09T11:50:17.131Z,97937.53
2023-05-09T11:52:48.552Z,97928.13
2023-05-09T11:55:19.807Z,97924.28
2023-05-09T11:57:50.240Z,97913.16
2023-05-09T12:00:19.783Z,97910.00
2023-05-09T12:02:48.313Z,97905.16
2023-05-09T12:05:17.556Z,97911.50
2023-05-09T12:07:47.980Z,97904.56
2023-05-09T12:10:20.552Z,97906.81
2023-05-09T12:12:49.997Z,97886.88
2023-05-09T12:15:18.598Z,97898.75
2023-05-09T12:17:50.457Z,97889.56
2023-05-09T12:20:24.305Z,97879.94
2023-05-09T12:22:54.713Z,97879.06
2023-05-09T12:25:24.501Z,97863.09
2023-05-09T12:27:54.632Z,97868.22
2023-05-09T12:30:25.321Z,97857.22
2023-05-09T12:32:54.437Z,97857.19
2023-05-09T12:35:24.697Z,97856.53
2023-05-09T12:38:00.048Z,97868.88
2023-05-09T12:40:29.177Z,97845.75
2023-05-09T12:43:02.754Z,97832.88
2023-05-09T12:45:33.900Z,97847.47
2023-05-09T12:48:02.486Z,97837.72
2023-05-09T12:50:35.836Z,97825.31
2023-05-09T12:53:05.176Z,97830.97
2023-05-09T12:55:40.782Z,97826.00
2023-05-09T12:58:08.605Z,97822.97
2023-05-09T13:00:44.528Z,97819.41
2023-05-09T13:03:25.092Z,97809.91
2023-05-09T13:05:57.566Z,97810.44
2023-05-09T13:08:25.774Z,97809.22
2023-05-09T13:11:01.048Z,97809.47
2023-05-09T13:13:32.686Z,97799.34
2023-05-09T13:16:00.866Z,97793.06
2023-05-09T13:18:28.735Z,97791.84
2023-05-09T13:20:56.518Z,97782.09
2023-05-09T13:23:25.310Z,97775.34
2023-05-09T13:25:54.294Z,97777.94
2023-05-09T13:28:22.102Z,97778.38
2023-05-09T13:30:50.127Z,97757.69
2023-05-09T13:33:25.710Z,97760.53
2023-05-09T13:35:54.470Z,97762.31
2023-05-09T13:38:22.150Z,97757.63
2023-05-09T13:40:50.066Z,97756.81
2023-05-09T13:43:19.107Z,97753.78
2023-05-09T13:45:47.914Z,97757.78
2023-05-09T13:48:15.727Z,97751.00
2023-05-09T13:50:43.501Z,97739.34
2023-05-09T13:53:11.510Z,97738.84
2023-05-09T13:55:39.589Z,97748.56
2023-05-09T13:58:07.806Z,97738.59
2023-05-09T14:00:37.337Z,97751.00
2023-05-09T14:03:05.619Z,97727.03
2023-05-09T14:05:38.328Z,97726.16
2023-05-09T14:08:09.374Z,97722.19
2023-05-09T14:10:39.680Z,97726.34
2023-05-09T14:13:08.322Z,97723.03
2023-05-09T14:15:37.667Z,97713.13
2023-05-09T14:18:07.315Z,97714.31
2023-05-09T14:20:37.205Z,97704.06
2023-05-09T14:23:06.245Z,97701.63
2023-05-09T14:25:33.956Z,97698.03
2023-05-09T14:28:10.867Z,97698.03
2023-05-09T14:30:42.035Z,97695.22
2023-05-09T14:33:14.392Z,97690.72
2023-05-09T14:35:42.115Z,97678.38
2023-05-09T14:38:09.978Z,97679.22
2023-05-09T14:40:40.190Z,97676.44
2023-05-09T14:43:11.270Z,97660.28
2023-05-09T14:45:43.329Z,97660.81
2023-05-09T14:48:15.320Z,97664.28
2023-05-09T14:50:44.167Z,97648.31
2023-05-09T14:53:12.691Z,97645.97
2023-05-09T14:55:40.811Z,97640.91
2023-05-09T14:58:12.937Z,97636.72
2023-05-09T15:00:42.133Z,97631.47
2023-05-09T15:03:11.383Z,97634.22
2023-05-09T15:05:39.756Z,97631.81
2023-05-09T15:08:08.020Z,97622.78
2023-05-09T15:10:43.122Z,97613.31
2023-05-09T15:13:12.683Z,97617.03
2023-05-09T15:15:42.588Z,97600.13
2023-05-09T15:18:13.774Z,97610.25
2023-05-09T15:20:41.513Z,97614.44
2023-05-09T15:23:09.404Z,97620.00
2023-05-09T15:25:38.395Z,97605.78
2023-05-09T15:28:06.937Z,97598.47
2023-05-09T15:30:38.147Z,97600.22
2023-05-09T15:33:08.181Z,97609.16
2023-05-09T15:35:38.373Z,97600.91
2023-05-09T15:38:06.307Z,97596.13
2023-05-09T15:40:34.281Z,97591.00
2023-05-09T15:43:07.366Z,97585.09
2023-05-09T15:45:38.181Z,97587.03
2023-05-09T15:48:07.574Z,97585.38
2023-05-09T15:50:35.658Z,97592.56
2023-05-09T15:53:03.473Z,97577.81
2023-05-09T15:55:32.907Z,97585.44
2023-05-09T15:58:00.860Z,97578.59
2023-05-09T16:00:29.704Z,97569.38
2023-05-09T16:02:58.052Z,97569.81
2023-05-09T16:05:28.604Z,97562.53
2023-05-09T16:07:56.658Z,97558.91
2023-05-09T16:10:24.610Z,97551.63
2023-05-09T16:12:54.806Z,97547.09
2023-05-09T16:15:23.181Z,97547.94
2023-05-09T16:17:50.958Z,97556.63
2023-05-09T16:20:18.898Z,97546.91
2023-05-09T16:22:50.285Z,97551.06
2023-05-09T16:25:18.952Z,97545.72
2023-05-09T16:27:50.758Z,97543.28
2023-05-09T16:30:22.504Z,97536.50
2023-05-09T16:32:54.391Z,97532.88
2023-05-09T16:35:25.573Z,97527.16
2023-05-09T16:37:56.195Z,97522.59
2023-05-09T16:40:34.040Z,97527.47
2023-05-09T16:43:01.841Z,97517.22
2023-05-09T16:45:29.895Z,97515.34
2023-05-09T16:48:02.128Z,97514.56
2023-05-09T16:50:31.303Z,97512.38
2023-05-09T16:53:00.477Z,97515.47
2023-05-09T16:55:28.804Z,97507.41
2023-05-09T16:57:56.611Z,97503.69
2023-05-09T17:00:25.203Z,97502.63
2023-05-09T17:02:53.578Z,97506.09
2023-05-09T17:05:21.590Z,97488.66
2023-05-09T17:07:49.547Z,97486.13
2023-05-09T17:10:18.814Z,97482.84
2023-05-09T17:12:47.774Z,97478.16
2023-05-09T17:15:15.957Z,97476.94
2023-05-09T17:17:48.617Z,97473.66
2023-05-09T17:20:19.568Z,97471.25
2023-05-09T17:22:49.583Z,97462.72
2023-05-09T17:25:20.352Z,97467.25
2023-05-09T17:27:49.238Z,97458.75
2023-05-09T17:30:18.346Z,97463.56
2023-05-09T17:32:49.168Z,97448.84
2023-05-09T17:35:20.812Z,97455.25
2023-05-09T17:37:51.124Z,97457.72
2023-05-09T17:40:21.213Z,97472.44
2023-05-09T17:42:49.027Z,97459.06
2023-05-09T17:45:22.582Z,97459.41
2023-05-09T17:47:50.719Z,97459.91
2023-05-09T17:50:20.379Z,97455.06
2023-05-09T17:52:52.230Z,97461.91
2023-05-09T17:55:22.289Z,97453.25
2023-05-09T17:57:50.248Z,97448.16
2023-05-09T18:03:06.005Z,97440.63
2023-05-09T18:05:35.840Z,97441.63
2023-05-09T18:08:06.142Z,97436.72
2023-05-09T18:10:35.255Z,97422.81
2023-05-09T18:13:05.609Z,97429.28
2023-05-09T18:15:38.360Z,97426.22
2023-05-09T18:18:09.557Z,97420.91
2023-05-09T18:20:40.004Z,97414.53
2023-05-09T18:23:07.837Z,97418.56
2023-05-09T18:25:38.861Z,97429.88
2023-05-09T18:28:09.381Z,97419.63
2023-05-09T18:30:38.944Z,97417.22
2023-05-09T18:33:07.132Z,97414.59
2023-05-09T18:35:35.284Z,97411.09
2023-05-09T18:38:03.276Z,97413.19
2023-05-09T18:40:32.580Z,97408.84
2023-05-09T18:43:02.077Z,97409.69
2023-05-09T18:45:30.822Z,97401.13
2023-05-09T18:47:59.427Z,97406.75
2023-05-09T18:50:27.308Z,97415.97
2023-05-09T18:52:56.981Z,97409.22
2023-05-09T18:55:25.620Z,97404.66
2023-05-09T18:57:56.291Z,97408.56
2023-05-09T19:00:26.563Z,97410.28
2023-05-09T19:02:55.028Z,97408.75
2023-05-09T19:05:25.663Z,97414.28
2023-05-09T19:08:02.061Z,97406.34
2023-05-09T19:10:31.157Z,97411.16
2023-05-09T19:12:58.951Z,97406.84
2023-05-09T19:15:29.904Z,97410.81
2023-05-09T19:17:57.688Z,97413.63
2023-05-09T19:20:25.869Z,97413.34
2023-05-09T19:22:53.619Z,97417.75
2023-05-09T19:25:21.426Z,97422.13
2023-05-09T19:27:49.269Z,97414.66
2023-05-09T19:30:17.543Z,97420.31
2023-05-09T19:32:46.785Z,97428.38
2023-05-09T19:35:14.594Z,97425.78
2023-05-09T19:37:42.357Z,97428.97
2023-05-09T19:40:11.319Z,97433.50
2023-05-09T19:42:39.337Z,97435.97
2023-05-09T19:45:07.906Z,97437.91
2023-05-09T19:47:35.677Z,97429.63
2023-05-09T19:50:05.429Z,97435.97
2023-05-09T19:52:33.256Z,97438.41
2023-05-09T19:55:01.325Z,97436.84
2023-05-09T19:57:30.022Z,97441.56
2023-05-09T20:00:01.682Z,97445.59
2023-05-09T20:02:34.285Z,97437.28
2023-05-09T20:05:02.369Z,97438.78
2023-05-09T20:07:41.476Z,97437.06
2023-05-09T20:10:12.663Z,97445.69
2023-05-09T20:12:42.101Z,97448.53
2023-05-09T20:15:13.575Z,97449.72
2023-05-09T20:17:43.374Z,97447.41
2023-05-09T20:20:18.389Z,97452.13
2023-05-09T20:22:52.143Z,97447.44
2023-05-09T20:25:20.732Z,97453.75
2023-05-09T20:27:51.978Z,97453.88
2023-05-09T20:30:29.459Z,97451.66
2023-05-09T20:32:58.970Z,97450.91
2023-05-09T20:35:31.687Z,97446.22
2023-05-09T20:38:04.534Z,97455.69
2023-05-09T20:40:34.238Z,97451.09
2023-05-09T20:43:02.045Z,97450.34
2023-05-09T20:45:31.430Z,97443.56
2023-05-09T20:47:59.456Z,97438.47
2023-05-09T20:50:27.192Z,97448.72
2023-05-09T20:53:02.227Z,97440.09
2023-05-09T20:55:33.058Z,97444.09
2023-05-09T20:58:01.139Z,97437.81
2023-05-09T21:00:29.132Z,97433.88
2023-05-09T21:02:58.759Z,97433.84
2023-05-09T21:05:26.765Z,97437.06
2023-05-09T21:07:55.513Z,97438.66
2023-05-09T21:10:23.397Z,97434.00
2023-05-09T21:13:07.530Z,97433.16
2023-05-09T21:15:35.386Z,97432.50
2023-05-09T21:18:03.203Z,97433.66
2023-05-09T21:20:31.103Z,97442.72
2023-05-09T21:22:58.790Z,97467.38
2023-05-09T21:25:27.246Z,97484.31
2023-05-09T21:27:56.295Z,97498.75
2023-05-09T21:30:25.116Z,97508.00
2023-05-09T21:32:53.202Z,97499.34
2023-05-09T21:35:21.300Z,97498.84
2023-05-09T21:37:52.393Z,97498.47
2023-05-09T21:40:20.358Z,97497.66
2023-05-09T21:42:48.706Z,97495.72
2023-05-09T21:45:18.466Z,97493.44
2023-05-09T21:47:46.284Z,97493.03
2023-05-09T21:50:14.544Z,97495.06
2023-05-09T21:52:42.725Z,97490.75
2023-05-09T21:55:11.236Z,97484.13
2023-05-09T21:57:39.213Z,97486.06
2023-05-09T22:00:13.922Z,97488.53
2023-05-09T22:02:45.735Z,97490.47
2023-05-09T22:05:18.058Z,97488.59
2023-05-09T22:07:45.852Z,97479.84
2023-05-09T22:10:23.731Z,97473.53
2023-05-09T22:12:51.541Z,97483.00
2023-05-09T22:15:19.786Z,97481.44
2023-05-09T22:17:50.132Z,97471.19
2023-05-09T22:20:23.655Z,97473.56
2023-05-09T22:22:56.831Z,97472.03
2023-05-09T22:25:27.776Z,97468.97
2023-05-09T22:28:05.096Z,97470.59
2023-05-09T22:30:40.989Z,97466.28
2023-05-09T22:33:11.263Z,97464.28
2023-05-09T22:35:40.333Z,97462.81
2023-05-09T22:38:11.655Z,97460.44
2023-05-09T22:40:45.412Z,97463.63
2023-05-09T22:43:13.543Z,97462.13
2023-05-09T22:45:42.417Z,97460.22
2023-05-09T22:48:15.709Z,97463.06
2023-05-09T22:50:43.634Z,97455.63
2023-05-09T22:53:11.916Z,97450.47
2023-05-09T22:55:39.675Z,97445.44
2023-05-09T22:58:08.374Z,97446.19
2023-05-09T23:00:36.310Z,97445.00
2023-05-09T23:03:04.634Z,97449.78
2023-05-09T23:05:33.757Z,97444.78
2023-05-09T23:08:01.620Z,97435.72
2023-05-09T23:10:29.731Z,97433.31
2023-05-09T23:12:57.414Z,97432.56
2023-05-09T23:15:25.212Z,97438.09
2023-05-09T23:17:52.976Z,97424.69
2023-05-09T23:20:20.989Z,97430.22
2023-05-09T23:22:50.419Z,97419.88
2023-05-09T23:25:18.105Z,97423.09
2023-05-09T23:27:46.860Z,97423.09
2023-05-09T23:30:15.872Z,97413.72
2023-05-09T23:32:44.289Z,97408.97
2023-05-09T23:35:11.997Z,97412.91
2023-05-09T23:37:50.512Z,97415.25
2023-05-09T23:40:18.500Z,97406.25
2023-05-09T23:42:48.424Z,97407.78
2023-05-09T23:45:16.300Z,97413.69
2023-05-09T23:47:43.962Z,97416.09
2023-05-09T23:50:12.317Z,97411.81
2023-05-09T23:52:41.150Z,97410.66
2023-05-09T23:55:10.971Z,97414.69
2023-05-09T23:57:38.647Z,97406.84
